sensor_id;sensor_type;location;lat;lon;timestamp;P1;durP1;ratioP1;P2;durP2;ratioP2
30934;SDS011;51033;42.648;23.292;2023-01-16T00:01:11;28.75;;;16.52;;
30934;SDS011;51033;42.648;23.292;2023-01-16T00:03:36;19.55;;;13.68;;
30934;SDS011;51033;42.648;23.292;2023-01-16T00:06:04;20.90;;;13.35;;
30934;SDS011;51033;42.648;23.292;2023-01-16T00:08:30;20.75;;;13.48;;
30934;SDS011;51033;42.648;23.292;2023-01-16T00:10:55;21.88;;;13.57;;
30934;SDS011;51033;42.648;23.292;2023-01-16T00:13:21;20.83;;;14.30;;
30934;SDS011;51033;42.648;23.292;2023-01-16T00:15:47;19.20;;;13.10;;
30934;SDS011;51033;42.648;23.292;2023-01-16T00:18:14;19.63;;;13.55;;
30934;SDS011;51033;42.648;23.292;2023-01-16T00:20:40;18.75;;;13.13;;
30934;SDS011;51033;42.648;23.292;2023-01-16T00:23:05;16.90;;;11.93;;
30934;SDS011;51033;42.648;23.292;2023-01-16T00:25:30;18.38;;;11.63;;
30934;SDS011;51033;42.648;23.292;2023-01-16T00:27:56;18.75;;;11.13;;
30934;SDS011;51033;42.648;23.292;2023-01-16T00:30:21;17.98;;;12.25;;
30934;SDS011;51033;42.648;23.292;2023-01-16T00:32:47;16.27;;;10.75;;
30934;SDS011;51033;42.648;23.292;2023-01-16T00:35:13;14.20;;;9.70;;
30934;SDS011;51033;42.648;23.292;2023-01-16T00:37:38;16.40;;;11.05;;
30934;SDS011;51033;42.648;23.292;2023-01-16T00:40:04;15.57;;;10.82;;
30934;SDS011;51033;42.648;23.292;2023-01-16T00:42:30;14.85;;;11.13;;
30934;SDS011;51033;42.648;23.292;2023-01-16T00:44:56;14.68;;;10.02;;
30934;SDS011;51033;42.648;23.292;2023-01-16T00:47:21;15.00;;;9.90;;
30934;SDS011;51033;42.648;23.292;2023-01-16T00:49:46;14.63;;;10.05;;
30934;SDS011;51033;42.648;23.292;2023-01-16T00:52:12;17.55;;;11.45;;
30934;SDS011;51033;42.648;23.292;2023-01-16T00:54:37;17.45;;;10.00;;
30934;SDS011;51033;42.648;23.292;2023-01-16T00:57:02;15.93;;;10.70;;
30934;SDS011;51033;42.648;23.292;2023-01-16T00:59:28;18.25;;;12.23;;
30934;SDS011;51033;42.648;23.292;2023-01-16T01:01:53;19.55;;;12.82;;
30934;SDS011;51033;42.648;23.292;2023-01-16T01:04:19;19.65;;;13.82;;
30934;SDS011;51033;42.648;23.292;2023-01-16T01:06:44;21.00;;;13.40;;
30934;SDS011;51033;42.648;23.292;2023-01-16T01:09:09;20.17;;;13.68;;
30934;SDS011;51033;42.648;23.292;2023-01-16T01:11:35;24.75;;;16.23;;
30934;SDS011;51033;42.648;23.292;2023-01-16T01:14:00;28.13;;;16.85;;
30934;SDS011;51033;42.648;23.292;2023-01-16T01:16:26;33.60;;;20.92;;
30934;SDS011;51033;42.648;23.292;2023-01-16T01:18:51;33.20;;;20.27;;
30934;SDS011;51033;42.648;23.292;2023-01-16T01:21:16;48.80;;;23.85;;
30934;SDS011;51033;42.648;23.292;2023-01-16T01:23:42;101.95;;;26.63;;
30934;SDS011;51033;42.648;23.292;2023-01-16T01:26:12;97.97;;;26.63;;
30934;SDS011;51033;42.648;23.292;2023-01-16T01:28:39;203.05;;;29.30;;
30934;SDS011;51033;42.648;23.292;2023-01-16T01:31:05;185.82;;;29.30;;
30934;SDS011;51033;42.648;23.292;2023-01-16T01:33:33;170.65;;;25.75;;
30934;SDS011;51033;42.648;23.292;2023-01-16T01:35:58;163.13;;;25.27;;
30934;SDS011;51033;42.648;23.292;2023-01-16T01:38:24;122.43;;;26.50;;
30934;SDS011;51033;42.648;23.292;2023-01-16T01:40:50;210.43;;;29.80;;
30934;SDS011;51033;42.648;23.292;2023-01-16T01:43:15;105.88;;;26.80;;
30934;SDS011;51033;42.648;23.292;2023-01-16T01:45:41;54.10;;;22.05;;
30934;SDS011;51033;42.648;23.292;2023-01-16T01:53:19;35.90;;;20.23;;
30934;SDS011;51033;42.648;23.292;2023-01-16T01:55:50;30.23;;;18.50;;
30934;SDS011;51033;42.648;23.292;2023-01-16T01:58:18;24.65;;;16.52;;
30934;SDS011;51033;42.648;23.292;2023-01-16T02:00:48;28.73;;;18.25;;
30934;SDS011;51033;42.648;23.292;2023-01-16T02:03:18;28.05;;;17.17;;
30934;SDS011;51033;42.648;23.292;2023-01-16T02:05:51;30.25;;;18.38;;
30934;SDS011;51033;42.648;23.292;2023-01-16T02:08:19;31.48;;;18.75;;
30934;SDS011;51033;42.648;23.292;2023-01-16T02:10:49;30.85;;;18.20;;
30934;SDS011;51033;42.648;23.292;2023-01-16T02:13:17;27.05;;;16.13;;
30934;SDS011;51033;42.648;23.292;2023-01-16T02:15:43;25.13;;;16.50;;
30934;SDS011;51033;42.648;23.292;2023-01-16T02:18:27;23.73;;;16.10;;
30934;SDS011;51033;42.648;23.292;2023-01-16T02:29:52;17.73;;;12.38;;
30934;SDS011;51033;42.648;23.292;2023-01-16T02:32:25;21.08;;;13.88;;
30934;SDS011;51033;42.648;23.292;2023-01-16T02:35:21;20.20;;;12.93;;
30934;SDS011;51033;42.648;23.292;2023-01-16T02:38:01;21.00;;;12.20;;
30934;SDS011;51033;42.648;23.292;2023-01-16T02:54:15;23.77;;;15.00;;
30934;SDS011;51033;42.648;23.292;2023-01-16T02:56:51;19.58;;;13.30;;
30934;SDS011;51033;42.648;23.292;2023-01-16T02:59:23;19.23;;;13.07;;
30934;SDS011;51033;42.648;23.292;2023-01-16T03:01:52;19.33;;;12.48;;
30934;SDS011;51033;42.648;23.292;2023-01-16T03:07:08;15.85;;;10.85;;
30934;SDS011;51033;42.648;23.292;2023-01-16T03:09:45;19.35;;;11.15;;
30934;SDS011;51033;42.648;23.292;2023-01-16T03:12:33;19.73;;;13.25;;
30934;SDS011;51033;42.648;23.292;2023-01-16T03:25:35;26.38;;;16.00;;
30934;SDS011;51033;42.648;23.292;2023-01-16T03:28:07;26.02;;;15.70;;
30934;SDS011;51033;42.648;23.292;2023-01-16T03:36:14;22.42;;;15.15;;
30934;SDS011;51033;42.648;23.292;2023-01-16T03:38:47;22.02;;;13.45;;
30934;SDS011;51033;42.648;23.292;2023-01-16T03:41:16;19.73;;;14.50;;
30934;SDS011;51033;42.648;23.292;2023-01-16T03:43:48;19.75;;;12.48;;
30934;SDS011;51033;42.648;23.292;2023-01-16T03:46:18;20.38;;;13.20;;
30934;SDS011;51033;42.648;23.292;2023-01-16T03:48:50;18.67;;;12.55;;
30934;SDS011;51033;42.648;23.292;2023-01-16T03:51:28;23.60;;;13.40;;
30934;SDS011;51033;42.648;23.292;2023-01-16T03:54:06;15.27;;;11.75;;
30934;SDS011;51033;42.648;23.292;2023-01-16T03:56:52;20.30;;;13.55;;
30934;SDS011;51033;42.648;23.292;2023-01-16T03:59:26;19.38;;;12.98;;
30934;SDS011;51033;42.648;23.292;2023-01-16T04:02:26;22.52;;;15.05;;
30934;SDS011;51033;42.648;23.292;2023-01-16T04:04:49;19.80;;;13.75;;
30934;SDS011;51033;42.648;23.292;2023-01-16T04:10:00;19.83;;;14.25;;
30934;SDS011;51033;42.648;23.292;2023-01-16T04:12:32;19.92;;;13.85;;
30934;SDS011;51033;42.648;23.292;2023-01-16T04:15:02;18.98;;;11.77;;
30934;SDS011;51033;42.648;23.292;2023-01-16T04:17:29;18.98;;;13.07;;
30934;SDS011;51033;42.648;23.292;2023-01-16T04:19:55;24.95;;;14.82;;
30934;SDS011;51033;42.648;23.292;2023-01-16T04:22:25;20.58;;;13.90;;
30934;SDS011;51033;42.648;23.292;2023-01-16T04:24:53;20.77;;;13.95;;
30934;SDS011;51033;42.648;23.292;2023-01-16T04:27:21;21.83;;;12.82;;
30934;SDS011;51033;42.648;23.292;2023-01-16T04:29:46;24.30;;;15.63;;
30934;SDS011;51033;42.648;23.292;2023-01-16T04:32:12;23.02;;;14.23;;
30934;SDS011;51033;42.648;23.292;2023-01-16T04:34:38;19.70;;;13.43;;
30934;SDS011;51033;42.648;23.292;2023-01-16T04:37:03;23.70;;;16.05;;
30934;SDS011;51033;42.648;23.292;2023-01-16T04:39:29;26.38;;;16.13;;
30934;SDS011;51033;42.648;23.292;2023-01-16T04:41:54;25.25;;;14.63;;
30934;SDS011;51033;42.648;23.292;2023-01-16T04:44:20;20.25;;;12.70;;
30934;SDS011;51033;42.648;23.292;2023-01-16T04:46:45;20.35;;;13.43;;
30934;SDS011;51033;42.648;23.292;2023-01-16T04:49:11;20.55;;;12.90;;
30934;SDS011;51033;42.648;23.292;2023-01-16T04:51:36;23.65;;;15.23;;
30934;SDS011;51033;42.648;23.292;2023-01-16T04:54:03;24.60;;;14.88;;
30934;SDS011;51033;42.648;23.292;2023-01-16T04:56:30;20.70;;;13.60;;
30934;SDS011;51033;42.648;23.292;2023-01-16T04:58:56;21.05;;;14.88;;
30934;SDS011;51033;42.648;23.292;2023-01-16T05:01:21;22.70;;;14.43;;
30934;SDS011;51033;42.648;23.292;2023-01-16T05:03:47;24.73;;;14.90;;
30934;SDS011;51033;42.648;23.292;2023-01-16T05:06:13;25.50;;;14.20;;
30934;SDS011;51033;42.648;23.292;2023-01-16T05:08:38;24.52;;;13.52;;
30934;SDS011;51033;42.648;23.292;2023-01-16T05:11:04;19.00;;;14.23;;
30934;SDS011;51033;42.648;23.292;2023-01-16T05:13:29;18.67;;;13.07;;
30934;SDS011;51033;42.648;23.292;2023-01-16T05:15:55;19.92;;;13.32;;
30934;SDS011;51033;42.648;23.292;2023-01-16T05:18:21;14.63;;;9.90;;
30934;SDS011;51033;42.648;23.292;2023-01-16T05:20:47;18.85;;;11.55;;
30934;SDS011;51033;42.648;23.292;2023-01-16T05:23:12;14.40;;;9.45;;
30934;SDS011;51033;42.648;23.292;2023-01-16T05:25:38;13.07;;;9.13;;
30934;SDS011;51033;42.648;23.292;2023-01-16T05:28:03;16.08;;;10.10;;
30934;SDS011;51033;42.648;23.292;2023-01-16T05:30:29;20.42;;;14.80;;
30934;SDS011;51033;42.648;23.292;2023-01-16T05:32:55;25.83;;;16.63;;
30934;SDS011;51033;42.648;23.292;2023-01-16T05:35:20;27.58;;;17.88;;
30934;SDS011;51033;42.648;23.292;2023-01-16T05:37:46;27.15;;;17.50;;
30934;SDS011;51033;42.648;23.292;2023-01-16T05:40:12;26.38;;;16.17;;
30934;SDS011;51033;42.648;23.292;2023-01-16T05:42:38;23.40;;;16.48;;
30934;SDS011;51033;42.648;23.292;2023-01-16T05:45:03;18.80;;;13.02;;
30934;SDS011;51033;42.648;23.292;2023-01-16T05:47:29;16.90;;;11.75;;
30934;SDS011;51033;42.648;23.292;2023-01-16T05:49:54;17.27;;;11.63;;
30934;SDS011;51033;42.648;23.292;2023-01-16T05:52:23;19.60;;;12.82;;
30934;SDS011;51033;42.648;23.292;2023-01-16T05:54:51;19.75;;;12.25;;
30934;SDS011;51033;42.648;23.292;2023-01-16T05:57:18;19.23;;;12.52;;
30934;SDS011;51033;42.648;23.292;2023-01-16T05:59:47;20.92;;;13.90;;
30934;SDS011;51033;42.648;23.292;2023-01-16T06:02:12;19.70;;;13.18;;
30934;SDS011;51033;42.648;23.292;2023-01-16T06:04:38;15.50;;;10.75;;
30934;SDS011;51033;42.648;23.292;2023-01-16T06:07:03;19.23;;;12.02;;
30934;SDS011;51033;42.648;23.292;2023-01-16T06:09:29;16.80;;;11.40;;
30934;SDS011;51033;42.648;23.292;2023-01-16T06:11:54;16.85;;;12.07;;
30934;SDS011;51033;42.648;23.292;2023-01-16T06:14:19;17.95;;;12.48;;
30934;SDS011;51033;42.648;23.292;2023-01-16T06:16:45;18.95;;;12.57;;
30934;SDS011;51033;42.648;23.292;2023-01-16T06:19:10;17.90;;;10.95;;
30934;SDS011;51033;42.648;23.292;2023-01-16T06:21:36;17.88;;;12.05;;
30934;SDS011;51033;42.648;23.292;2023-01-16T06:24:01;16.55;;;11.57;;
30934;SDS011;51033;42.648;23.292;2023-01-16T06:26:27;18.73;;;13.05;;
30934;SDS011;51033;42.648;23.292;2023-01-16T06:28:52;19.10;;;12.70;;
30934;SDS011;51033;42.648;23.292;2023-01-16T06:31:21;27.10;;;19.05;;
30934;SDS011;51033;42.648;23.292;2023-01-16T06:33:47;25.35;;;18.30;;
30934;SDS011;51033;42.648;23.292;2023-01-16T06:36:12;32.13;;;21.75;;
30934;SDS011;51033;42.648;23.292;2023-01-16T06:38:37;52.80;;;36.30;;
30934;SDS011;51033;42.648;23.292;2023-01-16T06:41:03;42.45;;;28.50;;
30934;SDS011;51033;42.648;23.292;2023-01-16T06:43:28;45.67;;;30.95;;
30934;SDS011;51033;42.648;23.292;2023-01-16T06:45:54;43.58;;;29.27;;
30934;SDS011;51033;42.648;23.292;2023-01-16T06:48:20;51.25;;;30.95;;
30934;SDS011;51033;42.648;23.292;2023-01-16T06:50:45;65.03;;;34.40;;
30934;SDS011;51033;42.648;23.292;2023-01-16T06:53:11;50.58;;;29.60;;
30934;SDS011;51033;42.648;23.292;2023-01-16T06:55:38;54.28;;;31.15;;
30934;SDS011;51033;42.648;23.292;2023-01-16T06:58:04;60.53;;;32.00;;
30934;SDS011;51033;42.648;23.292;2023-01-16T07:00:30;55.92;;;31.60;;
30934;SDS011;51033;42.648;23.292;2023-01-16T07:02:56;67.50;;;31.33;;
30934;SDS011;51033;42.648;23.292;2023-01-16T07:05:23;139.80;;;34.45;;
30934;SDS011;51033;42.648;23.292;2023-01-16T07:07:50;71.57;;;32.20;;
30934;SDS011;51033;42.648;23.292;2023-01-16T07:10:16;132.30;;;36.20;;
30934;SDS011;51033;42.648;23.292;2023-01-16T07:12:42;111.60;;;33.95;;
30934;SDS011;51033;42.648;23.292;2023-01-16T07:15:07;107.95;;;28.73;;
30934;SDS011;51033;42.648;23.292;2023-01-16T07:17:52;198.98;;;37.75;;
30934;SDS011;51033;42.648;23.292;2023-01-16T07:20:36;129.20;;;33.95;;
30934;SDS011;51033;42.648;23.292;2023-01-16T07:25:56;90.32;;;33.30;;
30934;SDS011;51033;42.648;23.292;2023-01-16T07:28:24;82.63;;;31.20;;
30934;SDS011;51033;42.648;23.292;2023-01-16T07:30:50;120.15;;;41.38;;
30934;SDS011;51033;42.648;23.292;2023-01-16T07:33:15;74.18;;;40.15;;
30934;SDS011;51033;42.648;23.292;2023-01-16T07:35:41;114.18;;;33.20;;
30934;SDS011;51033;42.648;23.292;2023-01-16T07:38:07;64.60;;;29.02;;
30934;SDS011;51033;42.648;23.292;2023-01-16T07:40:33;83.28;;;37.20;;
30934;SDS011;51033;42.648;23.292;2023-01-16T07:42:58;125.28;;;37.78;;
30934;SDS011;51033;42.648;23.292;2023-01-16T07:45:24;73.82;;;41.72;;
30934;SDS011;51033;42.648;23.292;2023-01-16T07:47:49;58.47;;;31.35;;
30934;SDS011;51033;42.648;23.292;2023-01-16T07:50:15;56.28;;;31.23;;
30934;SDS011;51033;42.648;23.292;2023-01-16T07:52:42;64.93;;;29.77;;
30934;SDS011;51033;42.648;23.292;2023-01-16T07:55:09;66.40;;;30.25;;
30934;SDS011;51033;42.648;23.292;2023-01-16T07:57:36;58.55;;;30.40;;
30934;SDS011;51033;42.648;23.292;2023-01-16T08:00:02;62.70;;;31.20;;
30934;SDS011;51033;42.648;23.292;2023-01-16T08:02:29;104.22;;;38.58;;
30934;SDS011;51033;42.648;23.292;2023-01-16T08:04:55;83.60;;;40.38;;
30934;SDS011;51033;42.648;23.292;2023-01-16T08:07:20;71.35;;;35.40;;
30934;SDS011;51033;42.648;23.292;2023-01-16T08:09:46;75.40;;;39.50;;
30934;SDS011;51033;42.648;23.292;2023-01-16T08:12:11;77.00;;;39.72;;
30934;SDS011;51033;42.648;23.292;2023-01-16T08:14:36;64.25;;;37.60;;
30934;SDS011;51033;42.648;23.292;2023-01-16T08:17:04;75.13;;;37.63;;
30934;SDS011;51033;42.648;23.292;2023-01-16T08:19:29;73.05;;;38.65;;
30934;SDS011;51033;42.648;23.292;2023-01-16T08:21:55;74.38;;;37.38;;
30934;SDS011;51033;42.648;23.292;2023-01-16T08:24:20;66.05;;;36.97;;
30934;SDS011;51033;42.648;23.292;2023-01-16T08:26:45;76.97;;;39.80;;
30934;SDS011;51033;42.648;23.292;2023-01-16T08:29:11;72.38;;;37.45;;
30934;SDS011;51033;42.648;23.292;2023-01-16T08:31:36;65.45;;;33.33;;
30934;SDS011;51033;42.648;23.292;2023-01-16T08:34:02;75.45;;;38.88;;
30934;SDS011;51033;42.648;23.292;2023-01-16T08:36:27;81.30;;;40.10;;
30934;SDS011;51033;42.648;23.292;2023-01-16T08:38:53;87.25;;;42.95;;
30934;SDS011;51033;42.648;23.292;2023-01-16T08:41:18;83.32;;;44.28;;
30934;SDS011;51033;42.648;23.292;2023-01-16T08:44:02;90.35;;;44.58;;
30934;SDS011;51033;42.648;23.292;2023-01-16T08:47:09;91.70;;;45.37;;
30934;SDS011;51033;42.648;23.292;2023-01-16T08:49:56;91.15;;;46.60;;
30934;SDS011;51033;42.648;23.292;2023-01-16T08:52:41;104.93;;;49.17;;
30934;SDS011;51033;42.648;23.292;2023-01-16T08:55:07;98.38;;;46.58;;
30934;SDS011;51033;42.648;23.292;2023-01-16T08:57:33;90.45;;;44.45;;
30934;SDS011;51033;42.648;23.292;2023-01-16T08:59:59;94.80;;;49.20;;
30934;SDS011;51033;42.648;23.292;2023-01-16T09:02:25;86.50;;;46.13;;
30934;SDS011;51033;42.648;23.292;2023-01-16T09:04:52;78.85;;;43.47;;
30934;SDS011;51033;42.648;23.292;2023-01-16T09:07:19;111.78;;;59.13;;
30934;SDS011;51033;42.648;23.292;2023-01-16T09:09:44;87.50;;;48.30;;
30934;SDS011;51033;42.648;23.292;2023-01-16T09:12:10;90.63;;;47.08;;
30934;SDS011;51033;42.648;23.292;2023-01-16T09:14:55;95.60;;;54.22;;
30934;SDS011;51033;42.648;23.292;2023-01-16T09:17:21;79.85;;;45.33;;
30934;SDS011;51033;42.648;23.292;2023-01-16T09:19:47;82.90;;;48.65;;
30934;SDS011;51033;42.648;23.292;2023-01-16T09:22:13;77.30;;;42.65;;
30934;SDS011;51033;42.648;23.292;2023-01-16T09:24:38;79.88;;;43.72;;
30934;SDS011;51033;42.648;23.292;2023-01-16T09:27:04;81.13;;;41.28;;
30934;SDS011;51033;42.648;23.292;2023-01-16T09:29:30;78.93;;;44.30;;
30934;SDS011;51033;42.648;23.292;2023-01-16T09:31:57;81.05;;;45.00;;
30934;SDS011;51033;42.648;23.292;2023-01-16T09:34:23;76.03;;;41.20;;
30934;SDS011;51033;42.648;23.292;2023-01-16T09:36:49;66.75;;;36.67;;
30934;SDS011;51033;42.648;23.292;2023-01-16T09:39:14;67.57;;;37.75;;
30934;SDS011;51033;42.648;23.292;2023-01-16T09:41:49;69.00;;;38.20;;
30934;SDS011;51033;42.648;23.292;2023-01-16T09:44:56;62.42;;;33.10;;
30934;SDS011;51033;42.648;23.292;2023-01-16T09:47:25;47.65;;;26.83;;
30934;SDS011;51033;42.648;23.292;2023-01-16T09:50:00;61.15;;;32.85;;
30934;SDS011;51033;42.648;23.292;2023-01-16T09:52:30;60.97;;;34.05;;
30934;SDS011;51033;42.648;23.292;2023-01-16T09:58:22;54.65;;;30.27;;
30934;SDS011;51033;42.648;23.292;2023-01-16T10:01:00;55.13;;;30.10;;
30934;SDS011;51033;42.648;23.292;2023-01-16T10:03:35;57.65;;;30.35;;
30934;SDS011;51033;42.648;23.292;2023-01-16T10:06:27;50.35;;;27.40;;
30934;SDS011;51033;42.648;23.292;2023-01-16T10:14:29;35.25;;;21.33;;
30934;SDS011;51033;42.648;23.292;2023-01-16T10:17:13;28.60;;;17.30;;
30934;SDS011;51033;42.648;23.292;2023-01-16T10:22:29;29.23;;;17.20;;
30934;SDS011;51033;42.648;23.292;2023-01-16T10:27:48;31.15;;;20.02;;
30934;SDS011;51033;42.648;23.292;2023-01-16T10:30:32;36.22;;;20.88;;
30934;SDS011;51033;42.648;23.292;2023-01-16T10:33:10;25.58;;;16.60;;
30934;SDS011;51033;42.648;23.292;2023-01-16T10:35:43;24.63;;;16.35;;
30934;SDS011;51033;42.648;23.292;2023-01-16T10:40:50;24.52;;;15.02;;
30934;SDS011;51033;42.648;23.292;2023-01-16T10:43:27;23.17;;;15.57;;
30934;SDS011;51033;42.648;23.292;2023-01-16T10:46:19;35.25;;;19.92;;
30934;SDS011;51033;42.648;23.292;2023-01-16T10:49:07;39.63;;;20.42;;
30934;SDS011;51033;42.648;23.292;2023-01-16T10:51:57;46.53;;;20.95;;
30934;SDS011;51033;42.648;23.292;2023-01-16T10:54:26;46.17;;;24.92;;
30934;SDS011;51033;42.648;23.292;2023-01-16T10:56:51;35.88;;;21.95;;
30934;SDS011;51033;42.648;23.292;2023-01-16T10:59:17;34.20;;;22.00;;
30934;SDS011;51033;42.648;23.292;2023-01-16T11:01:44;37.72;;;22.95;;
30934;SDS011;51033;42.648;23.292;2023-01-16T11:04:12;33.30;;;19.45;;
30934;SDS011;51033;42.648;23.292;2023-01-16T11:06:37;38.20;;;20.75;;
30934;SDS011;51033;42.648;23.292;2023-01-16T11:09:14;27.35;;;17.45;;
30934;SDS011;51033;42.648;23.292;2023-01-16T11:11:43;29.42;;;17.75;;
30934;SDS011;51033;42.648;23.292;2023-01-16T11:22:50;24.20;;;16.52;;
30934;SDS011;51033;42.648;23.292;2023-01-16T11:25:23;17.63;;;12.02;;
30934;SDS011;51033;42.648;23.292;2023-01-16T11:27:50;26.20;;;15.80;;
30934;SDS011;51033;42.648;23.292;2023-01-16T11:30:21;26.83;;;16.27;;
30934;SDS011;51033;42.648;23.292;2023-01-16T11:32:53;27.83;;;17.35;;
30934;SDS011;51033;42.648;23.292;2023-01-16T11:35:24;27.45;;;15.18;;
30934;SDS011;51033;42.648;23.292;2023-01-16T11:37:56;28.70;;;17.00;;
30934;SDS011;51033;42.648;23.292;2023-01-16T11:40:24;26.88;;;16.13;;
30934;SDS011;51033;42.648;23.292;2023-01-16T11:42:52;28.38;;;17.02;;
30934;SDS011;51033;42.648;23.292;2023-01-16T11:45:44;33.22;;;20.27;;
30934;SDS011;51033;42.648;23.292;2023-01-16T11:48:35;39.17;;;21.63;;
30934;SDS011;51033;42.648;23.292;2023-01-16T11:51:02;40.65;;;25.50;;
30934;SDS011;51033;42.648;23.292;2023-01-16T11:53:31;42.40;;;23.17;;
30934;SDS011;51033;42.648;23.292;2023-01-16T12:08:24;52.45;;;30.48;;
30934;SDS011;51033;42.648;23.292;2023-01-16T12:10:47;48.22;;;28.20;;
30934;SDS011;51033;42.648;23.292;2023-01-16T12:13:16;48.20;;;28.70;;
30934;SDS011;51033;42.648;23.292;2023-01-16T12:16:24;46.58;;;28.70;;
30934;SDS011;51033;42.648;23.292;2023-01-16T12:24:35;47.72;;;27.77;;
30934;SDS011;51033;42.648;23.292;2023-01-16T12:27:34;44.72;;;25.67;;
30934;SDS011;51033;42.648;23.292;2023-01-16T12:37:58;46.47;;;24.30;;
30934;SDS011;51033;42.648;23.292;2023-01-16T12:45:55;37.03;;;23.02;;
30934;SDS011;51033;42.648;23.292;2023-01-16T12:59:28;48.88;;;29.15;;
30934;SDS011;51033;42.648;23.292;2023-01-16T13:02:02;51.50;;;28.83;;
30934;SDS011;51033;42.648;23.292;2023-01-16T13:04:44;67.13;;;29.52;;
30934;SDS011;51033;42.648;23.292;2023-01-16T13:07:16;44.88;;;27.88;;
30934;SDS011;51033;42.648;23.292;2023-01-16T13:09:46;48.35;;;28.98;;
30934;SDS011;51033;42.648;23.292;2023-01-16T13:12:31;42.67;;;25.80;;
30934;SDS011;51033;42.648;23.292;2023-01-16T13:15:21;49.53;;;27.60;;
30934;SDS011;51033;42.648;23.292;2023-01-16T13:17:57;50.63;;;27.80;;
30934;SDS011;51033;42.648;23.292;2023-01-16T13:20:26;53.67;;;28.85;;
30934;SDS011;51033;42.648;23.292;2023-01-16T13:25:40;57.28;;;30.45;;
30934;SDS011;51033;42.648;23.292;2023-01-16T13:31:03;49.63;;;26.20;;
30934;SDS011;51033;42.648;23.292;2023-01-16T13:33:33;45.95;;;25.83;;
30934;SDS011;51033;42.648;23.292;2023-01-16T13:36:31;53.13;;;28.30;;
30934;SDS011;51033;42.648;23.292;2023-01-16T13:42:08;40.90;;;23.77;;
30934;SDS011;51033;42.648;23.292;2023-01-16T13:44:40;42.70;;;25.52;;
30934;SDS011;51033;42.648;23.292;2023-01-16T13:47:29;40.35;;;23.95;;
30934;SDS011;51033;42.648;23.292;2023-01-16T13:50:03;42.33;;;22.50;;
30934;SDS011;51033;42.648;23.292;2023-01-16T13:52:32;38.67;;;22.80;;
30934;SDS011;51033;42.648;23.292;2023-01-16T13:55:00;39.58;;;20.77;;
30934;SDS011;51033;42.648;23.292;2023-01-16T13:57:31;36.25;;;23.45;;
30934;SDS011;51033;42.648;23.292;2023-01-16T14:00:08;41.90;;;23.52;;
30934;SDS011;51033;42.648;23.292;2023-01-16T14:10:41;39.92;;;22.73;;
30934;SDS011;51033;42.648;23.292;2023-01-16T14:18:57;30.73;;;22.20;;
30934;SDS011;51033;42.648;23.292;2023-01-16T14:24:26;50.55;;;32.00;;
30934;SDS011;51033;42.648;23.292;2023-01-16T14:26:52;51.75;;;32.72;;
30934;SDS011;51033;42.648;23.292;2023-01-16T14:32:22;41.35;;;28.77;;
30934;SDS011;51033;42.648;23.292;2023-01-16T14:34:53;59.15;;;41.63;;
30934;SDS011;51033;42.648;23.292;2023-01-16T14:37:24;52.10;;;32.60;;
30934;SDS011;51033;42.648;23.292;2023-01-16T14:39:56;49.03;;;27.70;;
30934;SDS011;51033;42.648;23.292;2023-01-16T14:42:33;44.38;;;29.15;;
30934;SDS011;51033;42.648;23.292;2023-01-16T14:45:27;46.50;;;29.53;;
30934;SDS011;51033;42.648;23.292;2023-01-16T14:57:18;45.33;;;26.70;;
30934;SDS011;51033;42.648;23.292;2023-01-16T14:59:49;54.28;;;31.83;;
30934;SDS011;51033;42.648;23.292;2023-01-16T15:02:23;40.20;;;26.70;;
30934;SDS011;51033;42.648;23.292;2023-01-16T15:07:36;48.70;;;26.27;;
30934;SDS011;51033;42.648;23.292;2023-01-16T15:10:09;39.28;;;23.40;;
30934;SDS011;51033;42.648;23.292;2023-01-16T15:12:40;37.35;;;22.40;;
30934;SDS011;51033;42.648;23.292;2023-01-16T15:15:18;49.83;;;28.92;;
30934;SDS011;51033;42.648;23.292;2023-01-16T15:17:46;45.30;;;26.60;;
30934;SDS011;51033;42.648;23.292;2023-01-16T15:20:35;34.85;;;21.63;;
30934;SDS011;51033;42.648;23.292;2023-01-16T15:31:19;48.17;;;24.77;;
30934;SDS011;51033;42.648;23.292;2023-01-16T15:33:57;49.43;;;32.17;;
30934;SDS011;51033;42.648;23.292;2023-01-16T15:36:26;54.85;;;34.10;;
30934;SDS011;51033;42.648;23.292;2023-01-16T15:38:57;55.28;;;32.25;;
30934;SDS011;51033;42.648;23.292;2023-01-16T15:41:28;45.92;;;27.90;;
30934;SDS011;51033;42.648;23.292;2023-01-16T15:44:14;57.63;;;36.00;;
30934;SDS011;51033;42.648;23.292;2023-01-16T15:50:08;42.80;;;25.85;;
30934;SDS011;51033;42.648;23.292;2023-01-16T15:52:43;40.55;;;22.13;;
30934;SDS011;51033;42.648;23.292;2023-01-16T15:55:15;39.22;;;22.27;;
30934;SDS011;51033;42.648;23.292;2023-01-16T15:57:46;42.55;;;26.48;;
30934;SDS011;51033;42.648;23.292;2023-01-16T16:00:27;41.42;;;26.10;;
30934;SDS011;51033;42.648;23.292;2023-01-16T16:02:56;45.97;;;26.63;;
30934;SDS011;51033;42.648;23.292;2023-01-16T16:05:23;49.30;;;28.60;;
30934;SDS011;51033;42.648;23.292;2023-01-16T16:07:49;45.08;;;26.95;;
30934;SDS011;51033;42.648;23.292;2023-01-16T16:10:15;41.70;;;24.67;;
30934;SDS011;51033;42.648;23.292;2023-01-16T16:13:03;41.83;;;23.60;;
30934;SDS011;51033;42.648;23.292;2023-01-16T16:15:30;45.75;;;25.52;;
30934;SDS011;51033;42.648;23.292;2023-01-16T16:18:15;42.15;;;26.92;;
30934;SDS011;51033;42.648;23.292;2023-01-16T16:20:44;44.38;;;27.45;;
30934;SDS011;51033;42.648;23.292;2023-01-16T16:23:15;44.78;;;26.95;;
30934;SDS011;51033;42.648;23.292;2023-01-16T16:25:56;47.88;;;26.73;;
30934;SDS011;51033;42.648;23.292;2023-01-16T16:28:33;45.90;;;26.90;;
30934;SDS011;51033;42.648;23.292;2023-01-16T16:31:16;51.63;;;32.75;;
30934;SDS011;51033;42.648;23.292;2023-01-16T16:36:23;47.05;;;28.35;;
30934;SDS011;51033;42.648;23.292;2023-01-16T16:38:50;41.92;;;26.10;;
30934;SDS011;51033;42.648;23.292;2023-01-16T16:51:27;51.58;;;32.95;;
30934;SDS011;51033;42.648;23.292;2023-01-16T16:54:13;59.17;;;35.33;;
30934;SDS011;51033;42.648;23.292;2023-01-16T16:56:51;48.58;;;26.23;;
30934;SDS011;51033;42.648;23.292;2023-01-16T16:59:25;44.90;;;26.92;;
30934;SDS011;51033;42.648;23.292;2023-01-16T17:01:53;57.90;;;35.38;;
30934;SDS011;51033;42.648;23.292;2023-01-16T17:04:20;60.28;;;38.17;;
30934;SDS011;51033;42.648;23.292;2023-01-16T17:06:47;69.80;;;42.17;;
30934;SDS011;51033;42.648;23.292;2023-01-16T17:09:16;73.28;;;47.05;;
30934;SDS011;51033;42.648;23.292;2023-01-16T17:11:42;165.35;;;73.15;;
30934;SDS011;51033;42.648;23.292;2023-01-16T17:14:08;66.63;;;39.83;;
30934;SDS011;51033;42.648;23.292;2023-01-16T17:16:34;46.97;;;30.25;;
30934;SDS011;51033;42.648;23.292;2023-01-16T17:19:02;59.30;;;37.08;;
30934;SDS011;51033;42.648;23.292;2023-01-16T17:21:28;52.72;;;33.97;;
30934;SDS011;51033;42.648;23.292;2023-01-16T17:23:53;61.78;;;42.00;;
30934;SDS011;51033;42.648;23.292;2023-01-16T17:26:18;72.63;;;49.22;;
30934;SDS011;51033;42.648;23.292;2023-01-16T17:28:44;50.17;;;32.70;;
30934;SDS011;51033;42.648;23.292;2023-01-16T17:31:12;51.20;;;33.17;;